sensor_id;sensor_type;location;lat;lon;timestamp;P1;durP1;ratioP1;P2;durP2;ratioP2
13592;SDS011;6867;50.998;4.250;2023-02-28T00:00:29;8.97;;;5.63;;
13592;SDS011;6867;50.998;4.250;2023-02-28T00:02:55;7.27;;;5.07;;
13592;SDS011;6867;50.998;4.250;2023-02-28T00:05:23;8.80;;;5.37;;
13592;SDS011;6867;50.998;4.250;2023-02-28T00:07:52;8.77;;;5.67;;
13592;SDS011;6867;50.998;4.250;2023-02-28T00:10:19;7.90;;;5.33;;
13592;SDS011;6867;50.998;4.250;2023-02-28T00:12:49;9.93;;;5.53;;
13592;SDS011;6867;50.998;4.250;2023-02-28T00:15:17;10.17;;;5.10;;
13592;SDS011;6867;50.998;4.250;2023-02-28T00:17:44;9.03;;;5.90;;
13592;SDS011;6867;50.998;4.250;2023-02-28T00:20:12;6.63;;;5.00;;
13592;SDS011;6867;50.998;4.250;2023-02-28T00:22:40;10.27;;;5.70;;
13592;SDS011;6867;50.998;4.250;2023-02-28T00:25:09;8.83;;;5.73;;
13592;SDS011;6867;50.998;4.250;2023-02-28T00:27:38;7.43;;;5.10;;
13592;SDS011;6867;50.998;4.250;2023-02-28T00:30:08;7.47;;;5.20;;
13592;SDS011;6867;50.998;4.250;2023-02-28T00:32:36;6.20;;;4.77;;
13592;SDS011;6867;50.998;4.250;2023-02-28T00:35:03;9.20;;;6.07;;
13592;SDS011;6867;50.998;4.250;2023-02-28T00:37:31;9.40;;;5.63;;
13592;SDS011;6867;50.998;4.250;2023-02-28T00:39:58;7.83;;;5.13;;
13592;SDS011;6867;50.998;4.250;2023-02-28T00:42:25;9.97;;;5.20;;
13592;SDS011;6867;50.998;4.250;2023-02-28T00:44:53;9.27;;;5.90;;
13592;SDS011;6867;50.998;4.250;2023-02-28T00:47:21;7.40;;;6.53;;
13592;SDS011;6867;50.998;4.250;2023-02-28T00:49:48;11.43;;;6.13;;
13592;SDS011;6867;50.998;4.250;2023-02-28T00:52:15;10.00;;;5.63;;
13592;SDS011;6867;50.998;4.250;2023-02-28T00:54:41;12.43;;;6.20;;
13592;SDS011;6867;50.998;4.250;2023-02-28T00:57:08;9.50;;;6.13;;
13592;SDS011;6867;50.998;4.250;2023-02-28T00:59:34;9.83;;;6.00;;
13592;SDS011;6867;50.998;4.250;2023-02-28T01:02:01;8.60;;;5.63;;
13592;SDS011;6867;50.998;4.250;2023-02-28T01:04:29;11.27;;;6.43;;
13592;SDS011;6867;50.998;4.250;2023-02-28T01:06:56;7.43;;;5.33;;
13592;SDS011;6867;50.998;4.250;2023-02-28T01:09:23;11.47;;;5.73;;
13592;SDS011;6867;50.998;4.250;2023-02-28T01:11:49;9.93;;;6.57;;
13592;SDS011;6867;50.998;4.250;2023-02-28T01:14:16;9.73;;;6.43;;
13592;SDS011;6867;50.998;4.250;2023-02-28T01:16:43;10.07;;;5.97;;
13592;SDS011;6867;50.998;4.250;2023-02-28T01:19:10;12.53;;;6.30;;
13592;SDS011;6867;50.998;4.250;2023-02-28T01:21:38;8.13;;;5.70;;
13592;SDS011;6867;50.998;4.250;2023-02-28T01:24:05;10.17;;;6.27;;
13592;SDS011;6867;50.998;4.250;2023-02-28T01:26:33;9.30;;;6.40;;
13592;SDS011;6867;50.998;4.250;2023-02-28T01:28:59;11.10;;;6.73;;
13592;SDS011;6867;50.998;4.250;2023-02-28T01:31:26;9.77;;;6.33;;
13592;SDS011;6867;50.998;4.250;2023-02-28T01:33:53;9.83;;;6.87;;
13592;SDS011;6867;50.998;4.250;2023-02-28T01:36:20;10.77;;;6.67;;
13592;SDS011;6867;50.998;4.250;2023-02-28T01:38:50;11.73;;;6.30;;
13592;SDS011;6867;50.998;4.250;2023-02-28T01:41:18;10.40;;;6.93;;
13592;SDS011;6867;50.998;4.250;2023-02-28T01:43:56;13.70;;;6.93;;
13592;SDS011;6867;50.998;4.250;2023-02-28T01:46:28;10.30;;;7.03;;
13592;SDS011;6867;50.998;4.250;2023-02-28T01:48:56;8.27;;;6.10;;
13592;SDS011;6867;50.998;4.250;2023-02-28T01:51:29;13.07;;;6.73;;
13592;SDS011;6867;50.998;4.250;2023-02-28T01:54:02;10.73;;;6.27;;
13592;SDS011;6867;50.998;4.250;2023-02-28T01:56:39;9.17;;;6.33;;
13592;SDS011;6867;50.998;4.250;2023-02-28T01:59:10;9.47;;;6.47;;
13592;SDS011;6867;50.998;4.250;2023-02-28T02:01:39;10.47;;;6.47;;
13592;SDS011;6867;50.998;4.250;2023-02-28T02:04:06;12.30;;;6.87;;
13592;SDS011;6867;50.998;4.250;2023-02-28T02:06:34;10.00;;;6.47;;
13592;SDS011;6867;50.998;4.250;2023-02-28T02:09:05;13.10;;;6.53;;
13592;SDS011;6867;50.998;4.250;2023-02-28T02:11:32;10.50;;;6.90;;
13592;SDS011;6867;50.998;4.250;2023-02-28T02:14:10;9.73;;;6.60;;
13592;SDS011;6867;50.998;4.250;2023-02-28T02:16:52;14.50;;;6.97;;
13592;SDS011;6867;50.998;4.250;2023-02-28T02:19:53;9.47;;;6.53;;
13592;SDS011;6867;50.998;4.250;2023-02-28T02:25:51;13.20;;;6.77;;
13592;SDS011;6867;50.998;4.250;2023-02-28T02:28:28;8.30;;;5.90;;
13592;SDS011;6867;50.998;4.250;2023-02-28T02:34:30;11.03;;;6.93;;
13592;SDS011;6867;50.998;4.250;2023-02-28T02:37:17;10.10;;;6.60;;
13592;SDS011;6867;50.998;4.250;2023-02-28T02:39:58;9.33;;;6.77;;
13592;SDS011;6867;50.998;4.250;2023-02-28T02:42:32;9.03;;;6.07;;
13592;SDS011;6867;50.998;4.250;2023-02-28T02:45:06;12.40;;;6.90;;
13592;SDS011;6867;50.998;4.250;2023-02-28T02:47:38;11.47;;;6.87;;
13592;SDS011;6867;50.998;4.250;2023-02-28T02:50:11;10.77;;;6.80;;
13592;SDS011;6867;50.998;4.250;2023-02-28T02:52:42;10.47;;;6.67;;
13592;SDS011;6867;50.998;4.250;2023-02-28T02:55:14;12.67;;;6.93;;
13592;SDS011;6867;50.998;4.250;2023-02-28T02:57:44;11.87;;;7.57;;
13592;SDS011;6867;50.998;4.250;2023-02-28T03:00:14;11.43;;;7.30;;
13592;SDS011;6867;50.998;4.250;2023-02-28T03:02:44;12.07;;;7.67;;
13592;SDS011;6867;50.998;4.250;2023-02-28T03:05:17;8.93;;;6.30;;
13592;SDS011;6867;50.998;4.250;2023-02-28T03:07:46;11.13;;;7.07;;
13592;SDS011;6867;50.998;4.250;2023-02-28T03:10:26;12.90;;;7.87;;
13592;SDS011;6867;50.998;4.250;2023-02-28T03:13:00;11.70;;;7.07;;
13592;SDS011;6867;50.998;4.250;2023-02-28T03:15:42;11.30;;;7.13;;
13592;SDS011;6867;50.998;4.250;2023-02-28T03:18:22;13.50;;;7.17;;
13592;SDS011;6867;50.998;4.250;2023-02-28T03:20:58;13.93;;;7.40;;
13592;SDS011;6867;50.998;4.250;2023-02-28T03:23:34;11.30;;;6.90;;
13592;SDS011;6867;50.998;4.250;2023-02-28T03:26:12;15.40;;;7.67;;
13592;SDS011;6867;50.998;4.250;2023-02-28T03:28:46;13.87;;;8.07;;
13592;SDS011;6867;50.998;4.250;2023-02-28T03:31:21;11.97;;;6.90;;
13592;SDS011;6867;50.998;4.250;2023-02-28T03:33:54;11.30;;;7.50;;
13592;SDS011;6867;50.998;4.250;2023-02-28T03:36:28;15.57;;;7.73;;
13592;SDS011;6867;50.998;4.250;2023-02-28T03:38:58;13.53;;;7.43;;
13592;SDS011;6867;50.998;4.250;2023-02-28T03:41:30;11.17;;;7.13;;
13592;SDS011;6867;50.998;4.250;2023-02-28T03:44:00;14.03;;;7.27;;
13592;SDS011;6867;50.998;4.250;2023-02-28T03:46:32;12.13;;;7.20;;
13592;SDS011;6867;50.998;4.250;2023-02-28T03:49:06;12.30;;;6.63;;
13592;SDS011;6867;50.998;4.250;2023-02-28T03:51:42;12.70;;;7.10;;
13592;SDS011;6867;50.998;4.250;2023-02-28T03:54:12;12.97;;;7.67;;
13592;SDS011;6867;50.998;4.250;2023-02-28T03:56:43;14.07;;;7.03;;
13592;SDS011;6867;50.998;4.250;2023-02-28T03:59:15;12.30;;;7.53;;
13592;SDS011;6867;50.998;4.250;2023-02-28T04:01:47;12.47;;;7.30;;
13592;SDS011;6867;50.998;4.250;2023-02-28T04:04:15;11.37;;;7.13;;
13592;SDS011;6867;50.998;4.250;2023-02-28T04:06:44;11.93;;;6.03;;
13592;SDS011;6867;50.998;4.250;2023-02-28T04:09:12;13.27;;;7.20;;
13592;SDS011;6867;50.998;4.250;2023-02-28T04:11:40;11.17;;;7.73;;
13592;SDS011;6867;50.998;4.250;2023-02-28T04:14:09;10.20;;;7.00;;
13592;SDS011;6867;50.998;4.250;2023-02-28T04:16:37;13.30;;;7.67;;
13592;SDS011;6867;50.998;4.250;2023-02-28T04:19:06;13.20;;;7.03;;
13592;SDS011;6867;50.998;4.250;2023-02-28T04:21:34;10.47;;;7.17;;
13592;SDS011;6867;50.998;4.250;2023-02-28T04:24:05;15.47;;;7.60;;
13592;SDS011;6867;50.998;4.250;2023-02-28T04:26:33;15.43;;;7.93;;
13592;SDS011;6867;50.998;4.250;2023-02-28T04:29:02;12.37;;;7.97;;
13592;SDS011;6867;50.998;4.250;2023-02-28T04:31:30;11.83;;;7.53;;
13592;SDS011;6867;50.998;4.250;2023-02-28T04:33:58;10.70;;;7.37;;
13592;SDS011;6867;50.998;4.250;2023-02-28T04:36:24;12.67;;;7.17;;
13592;SDS011;6867;50.998;4.250;2023-02-28T04:38:51;11.20;;;7.87;;
13592;SDS011;6867;50.998;4.250;2023-02-28T04:41:20;13.40;;;7.53;;
13592;SDS011;6867;50.998;4.250;2023-02-28T04:43:47;13.77;;;7.63;;
13592;SDS011;6867;50.998;4.250;2023-02-28T04:46:14;10.13;;;7.07;;
13592;SDS011;6867;50.998;4.250;2023-02-28T04:48:42;13.23;;;7.60;;
13592;SDS011;6867;50.998;4.250;2023-02-28T04:51:10;15.57;;;7.50;;
13592;SDS011;6867;50.998;4.250;2023-02-28T04:53:38;16.00;;;7.13;;
13592;SDS011;6867;50.998;4.250;2023-02-28T04:56:06;16.60;;;8.63;;
13592;SDS011;6867;50.998;4.250;2023-02-28T04:58:35;13.67;;;7.90;;
13592;SDS011;6867;50.998;4.250;2023-02-28T05:01:02;12.47;;;8.67;;
13592;SDS011;6867;50.998;4.250;2023-02-28T05:03:37;11.40;;;7.77;;
13592;SDS011;6867;50.998;4.250;2023-02-28T05:06:05;11.67;;;7.83;;
13592;SDS011;6867;50.998;4.250;2023-02-28T05:08:32;11.37;;;8.00;;
13592;SDS011;6867;50.998;4.250;2023-02-28T05:10:59;11.90;;;8.13;;
13592;SDS011;6867;50.998;4.250;2023-02-28T05:13:26;13.00;;;8.20;;
13592;SDS011;6867;50.998;4.250;2023-02-28T05:15:55;15.17;;;8.40;;
13592;SDS011;6867;50.998;4.250;2023-02-28T05:18:22;17.57;;;8.43;;
13592;SDS011;6867;50.998;4.250;2023-02-28T05:20:49;11.33;;;7.27;;
13592;SDS011;6867;50.998;4.250;2023-02-28T05:23:15;13.40;;;7.97;;
13592;SDS011;6867;50.998;4.250;2023-02-28T05:25:45;12.70;;;7.63;;
13592;SDS011;6867;50.998;4.250;2023-02-28T05:28:12;12.07;;;7.70;;
13592;SDS011;6867;50.998;4.250;2023-02-28T05:30:39;12.40;;;7.23;;
13592;SDS011;6867;50.998;4.250;2023-02-28T05:33:11;12.37;;;7.83;;
13592;SDS011;6867;50.998;4.250;2023-02-28T05:35:38;11.87;;;7.70;;
13592;SDS011;6867;50.998;4.250;2023-02-28T05:38:05;11.17;;;7.60;;
13592;SDS011;6867;50.998;4.250;2023-02-28T05:40:32;11.97;;;7.33;;
13592;SDS011;6867;50.998;4.250;2023-02-28T05:42:59;10.43;;;6.67;;
13592;SDS011;6867;50.998;4.250;2023-02-28T05:45:26;11.07;;;7.13;;
13592;SDS011;6867;50.998;4.250;2023-02-28T05:47:53;13.33;;;6.70;;
13592;SDS011;6867;50.998;4.250;2023-02-28T05:50:21;11.50;;;7.83;;
13592;SDS011;6867;50.998;4.250;2023-02-28T05:52:49;11.53;;;7.27;;
13592;SDS011;6867;50.998;4.250;2023-02-28T05:55:16;18.57;;;8.03;;
13592;SDS011;6867;50.998;4.250;2023-02-28T05:57:43;12.37;;;7.00;;
13592;SDS011;6867;50.998;4.250;2023-02-28T06:00:10;11.30;;;7.13;;
13592;SDS011;6867;50.998;4.250;2023-02-28T06:02:40;11.37;;;7.77;;
13592;SDS011;6867;50.998;4.250;2023-02-28T06:05:07;19.67;;;7.20;;
13592;SDS011;6867;50.998;4.250;2023-02-28T06:07:40;9.27;;;6.63;;
13592;SDS011;6867;50.998;4.250;2023-02-28T06:10:07;8.90;;;7.00;;
13592;SDS011;6867;50.998;4.250;2023-02-28T06:12:34;11.97;;;7.37;;
13592;SDS011;6867;50.998;4.250;2023-02-28T06:15:01;10.27;;;6.43;;
13592;SDS011;6867;50.998;4.250;2023-02-28T06:17:28;8.60;;;6.57;;
13592;SDS011;6867;50.998;4.250;2023-02-28T06:19:54;9.70;;;7.00;;
13592;SDS011;6867;50.998;4.250;2023-02-28T06:22:23;11.70;;;6.87;;
13592;SDS011;6867;50.998;4.250;2023-02-28T06:24:52;10.70;;;6.40;;
13592;SDS011;6867;50.998;4.250;2023-02-28T06:27:19;13.17;;;6.83;;
13592;SDS011;6867;50.998;4.250;2023-02-28T06:29:47;10.30;;;6.67;;
13592;SDS011;6867;50.998;4.250;2023-02-28T06:32:14;18.90;;;6.50;;
13592;SDS011;6867;50.998;4.250;2023-02-28T06:34:40;9.90;;;7.10;;
13592;SDS011;6867;50.998;4.250;2023-02-28T06:37:07;11.40;;;6.10;;
13592;SDS011;6867;50.998;4.250;2023-02-28T06:39:34;11.23;;;7.33;;
13592;SDS011;6867;50.998;4.250;2023-02-28T06:42:02;12.17;;;7.03;;
13592;SDS011;6867;50.998;4.250;2023-02-28T06:44:28;12.40;;;7.20;;
13592;SDS011;6867;50.998;4.250;2023-02-28T06:47:00;10.83;;;6.70;;
13592;SDS011;6867;50.998;4.250;2023-02-28T06:49:28;9.23;;;6.07;;
13592;SDS011;6867;50.998;4.250;2023-02-28T06:51:55;11.93;;;7.10;;
13592;SDS011;6867;50.998;4.250;2023-02-28T06:54:22;10.13;;;5.97;;
13592;SDS011;6867;50.998;4.250;2023-02-28T06:56:48;8.07;;;6.33;;
13592;SDS011;6867;50.998;4.250;2023-02-28T06:59:17;11.63;;;6.67;;
13592;SDS011;6867;50.998;4.250;2023-02-28T07:01:43;12.53;;;6.60;;
13592;SDS011;6867;50.998;4.250;2023-02-28T07:04:10;8.83;;;6.00;;
13592;SDS011;6867;50.998;4.250;2023-02-28T07:06:38;10.43;;;6.33;;
13592;SDS011;6867;50.998;4.250;2023-02-28T07:09:05;9.27;;;6.57;;
13592;SDS011;6867;50.998;4.250;2023-02-28T07:11:31;9.87;;;6.67;;
13592;SDS011;6867;50.998;4.250;2023-02-28T07:13:58;11.47;;;7.00;;
13592;SDS011;6867;50.998;4.250;2023-02-28T07:16:26;11.60;;;7.53;;
13592;SDS011;6867;50.998;4.250;2023-02-28T07:18:53;9.27;;;7.23;;
13592;SDS011;6867;50.998;4.250;2023-02-28T07:21:20;12.73;;;6.40;;
13592;SDS011;6867;50.998;4.250;2023-02-28T07:23:48;13.40;;;7.00;;
13592;SDS011;6867;50.998;4.250;2023-02-28T07:26:15;10.00;;;6.67;;
13592;SDS011;6867;50.998;4.250;2023-02-28T07:28:46;9.27;;;6.30;;
13592;SDS011;6867;50.998;4.250;2023-02-28T07:31:14;9.53;;;6.73;;
13592;SDS011;6867;50.998;4.250;2023-02-28T07:33:43;7.47;;;6.00;;
13592;SDS011;6867;50.998;4.250;2023-02-28T07:36:11;11.93;;;6.57;;
13592;SDS011;6867;50.998;4.250;2023-02-28T07:38:40;10.63;;;6.33;;
13592;SDS011;6867;50.998;4.250;2023-02-28T07:41:07;8.33;;;6.43;;
13592;SDS011;6867;50.998;4.250;2023-02-28T07:43:34;8.67;;;6.27;;
13592;SDS011;6867;50.998;4.250;2023-02-28T07:46:02;8.97;;;6.10;;
13592;SDS011;6867;50.998;4.250;2023-02-28T07:48:29;11.23;;;6.40;;
13592;SDS011;6867;50.998;4.250;2023-02-28T07:50:57;9.20;;;6.43;;
13592;SDS011;6867;50.998;4.250;2023-02-28T07:53:25;8.53;;;5.67;;
13592;SDS011;6867;50.998;4.250;2023-02-28T07:55:54;10.73;;;5.97;;
13592;SDS011;6867;50.998;4.250;2023-02-28T07:58:21;7.67;;;5.67;;
13592;SDS011;6867;50.998;4.250;2023-02-28T08:00:48;7.63;;;5.63;;
13592;SDS011;6867;50.998;4.250;2023-02-28T08:03:15;8.67;;;5.70;;
13592;SDS011;6867;50.998;4.250;2023-02-28T08:05:42;6.20;;;4.80;;
13592;SDS011;6867;50.998;4.250;2023-02-28T08:08:11;8.53;;;5.30;;
13592;SDS011;6867;50.998;4.250;2023-02-28T08:10:37;7.47;;;5.30;;
13592;SDS011;6867;50.998;4.250;2023-02-28T08:13:04;8.43;;;5.33;;
13592;SDS011;6867;50.998;4.250;2023-02-28T08:15:31;10.57;;;4.87;;
13592;SDS011;6867;50.998;4.250;2023-02-28T08:17:57;6.27;;;5.07;;
13592;SDS011;6867;50.998;4.250;2023-02-28T08:20:24;13.00;;;4.53;;
13592;SDS011;6867;50.998;4.250;2023-02-28T08:22:52;7.53;;;5.23;;
13592;SDS011;6867;50.998;4.250;2023-02-28T08:25:20;8.97;;;4.70;;
13592;SDS011;6867;50.998;4.250;2023-02-28T08:27:47;5.70;;;4.30;;
13592;SDS011;6867;50.998;4.250;2023-02-28T08:30:16;7.87;;;3.80;;
13592;SDS011;6867;50.998;4.250;2023-02-28T08:32:43;6.70;;;3.90;;
13592;SDS011;6867;50.998;4.250;2023-02-28T08:35:09;8.27;;;4.00;;
13592;SDS011;6867;50.998;4.250;2023-02-28T08:37:36;9.23;;;4.00;;
13592;SDS011;6867;50.998;4.250;2023-02-28T08:40:03;7.00;;;3.63;;
13592;SDS011;6867;50.998;4.250;2023-02-28T08:42:33;8.03;;;4.03;;
13592;SDS011;6867;50.998;4.250;2023-02-28T08:44:59;11.43;;;3.50;;
13592;SDS011;6867;50.998;4.250;2023-02-28T08:47:26;3.53;;;3.10;;
13592;SDS011;6867;50.998;4.250;2023-02-28T08:49:53;3.77;;;3.03;;
13592;SDS011;6867;50.998;4.250;2023-02-28T08:52:19;4.00;;;3.07;;
13592;SDS011;6867;50.998;4.250;2023-02-28T08:54:46;3.93;;;3.30;;
13592;SDS011;6867;50.998;4.250;2023-02-28T08:57:12;4.13;;;2.60;;
13592;SDS011;6867;50.998;4.250;2023-02-28T08:59:41;4.57;;;3.07;;
13592;SDS011;6867;50.998;4.250;2023-02-28T09:02:08;4.17;;;2.60;;
13592;SDS011;6867;50.998;4.250;2023-02-28T09:04:36;5.17;;;2.73;;
13592;SDS011;6867;50.998;4.250;2023-02-28T09:07:02;4.83;;;3.07;;
13592;SDS011;6867;50.998;4.250;2023-02-28T09:09:29;4.13;;;2.57;;
13592;SDS011;6867;50.998;4.250;2023-02-28T09:11:56;3.87;;;2.90;;
13592;SDS011;6867;50.998;4.250;2023-02-28T09:14:23;6.33;;;3.10;;
13592;SDS011;6867;50.998;4.250;2023-02-28T09:16:51;4.40;;;3.07;;
13592;SDS011;6867;50.998;4.250;2023-02-28T09:19:17;4.63;;;3.07;;
13592;SDS011;6867;50.998;4.250;2023-02-28T09:21:44;4.70;;;3.10;;
13592;SDS011;6867;50.998;4.250;2023-02-28T09:24:11;4.27;;;3.53;;
13592;SDS011;6867;50.998;4.250;2023-02-28T09:26:39;4.00;;;2.90;;
13592;SDS011;6867;50.998;4.250;2023-02-28T09:29:06;3.77;;;2.80;;
13592;SDS011;6867;50.998;4.250;2023-02-28T09:31:33;3.63;;;3.10;;
13592;SDS011;6867;50.998;4.250;2023-02-28T09:34:03;4.40;;;2.80;;
13592;SDS011;6867;50.998;4.250;2023-02-28T09:36:30;4.70;;;3.13;;
13592;SDS011;6867;50.998;4.250;2023-02-28T09:38:58;2.63;;;2.43;;
13592;SDS011;6867;50.998;4.250;2023-02-28T09:41:26;3.80;;;2.10;;
13592;SDS011;6867;50.998;4.250;2023-02-28T09:43:56;3.97;;;2.10;;
13592;SDS011;6867;50.998;4.250;2023-02-28T09:46:27;2.50;;;2.20;;
13592;SDS011;6867;50.998;4.250;2023-02-28T09:48:57;4.27;;;3.03;;
13592;SDS011;6867;50.998;4.250;2023-02-28T09:51:33;2.77;;;2.07;;
13592;SDS011;6867;50.998;4.250;2023-02-28T09:54:05;3.37;;;2.10;;
13592;SDS011;6867;50.998;4.250;2023-02-28T09:56:36;3.20;;;2.60;;
13592;SDS011;6867;50.998;4.250;2023-02-28T09:59:06;2.90;;;2.40;;
13592;SDS011;6867;50.998;4.250;2023-02-28T10:01:42;3.17;;;2.17;;
13592;SDS011;6867;50.998;4.250;2023-02-28T10:04:16;5.03;;;2.27;;
13592;SDS011;6867;50.998;4.250;2023-02-28T10:06:58;3.37;;;2.23;;
13592;SDS011;6867;50.998;4.250;2023-02-28T10:09:32;3.33;;;2.20;;
13592;SDS011;6867;50.998;4.250;2023-02-28T10:12:03;3.03;;;2.07;;
13592;SDS011;6867;50.998;4.250;2023-02-28T10:14:32;2.50;;;2.00;;
13592;SDS011;6867;50.998;4.250;2023-02-28T10:17:01;3.87;;;2.10;;
13592;SDS011;6867;50.998;4.250;2023-02-28T10:19:32;2.10;;;1.90;;
13592;SDS011;6867;50.998;4.250;2023-02-28T10:22:03;2.00;;;1.80;;
13592;SDS011;6867;50.998;4.250;2023-02-28T10:24:37;3.83;;;2.10;;
13592;SDS011;6867;50.998;4.250;2023-02-28T10:27:12;2.93;;;2.10;;
13592;SDS011;6867;50.998;4.250;2023-02-28T10:29:42;2.37;;;1.90;;
13592;SDS011;6867;50.998;4.250;2023-02-28T10:32:11;2.73;;;2.03;;
13592;SDS011;6867;50.998;4.250;2023-02-28T10:34:42;2.93;;;1.90;;
13592;SDS011;6867;50.998;4.250;2023-02-28T10:37:10;4.70;;;2.70;;
13592;SDS011;6867;50.998;4.250;2023-02-28T10:39:40;2.50;;;2.30;;
13592;SDS011;6867;50.998;4.250;2023-02-28T10:42:21;4.77;;;2.40;;
13592;SDS011;6867;50.998;4.250;2023-02-28T10:45:04;2.30;;;1.80;;
13592;SDS011;6867;50.998;4.250;2023-02-28T10:47:33;2.30;;;1.80;;
13592;SDS011;6867;50.998;4.250;2023-02-28T10:50:01;2.30;;;1.93;;
13592;SDS011;6867;50.998;4.250;2023-02-28T10:52:37;2.23;;;1.90;;
13592;SDS011;6867;50.998;4.250;2023-02-28T10:55:18;2.87;;;2.10;;
13592;SDS011;6867;50.998;4.250;2023-02-28T10:57:48;4.83;;;1.97;;
13592;SDS011;6867;50.998;4.250;2023-02-28T11:00:16;3.80;;;2.33;;
13592;SDS011;6867;50.998;4.250;2023-02-28T11:02:44;3.27;;;1.93;;
13592;SDS011;6867;50.998;4.250;2023-02-28T11:05:24;2.20;;;1.90;;
13592;SDS011;6867;50.998;4.250;2023-02-28T11:07:55;2.13;;;1.73;;
13592;SDS011;6867;50.998;4.250;2023-02-28T11:10:24;3.60;;;2.10;;
13592;SDS011;6867;50.998;4.250;2023-02-28T11:12:55;2.27;;;1.80;;
13592;SDS011;6867;50.998;4.250;2023-02-28T11:15:25;3.20;;;1.80;;
13592;SDS011;6867;50.998;4.250;2023-02-28T11:17:53;2.57;;;1.70;;
13592;SDS011;6867;50.998;4.250;2023-02-28T11:20:21;2.03;;;1.83;;
13592;SDS011;6867;50.998;4.250;2023-02-28T11:22:50;1.83;;;1.50;;
13592;SDS011;6867;50.998;4.250;2023-02-28T11:25:21;1.90;;;1.70;;
13592;SDS011;6867;50.998;4.250;2023-02-28T11:27:52;2.20;;;1.97;;
13592;SDS011;6867;50.998;4.250;2023-02-28T11:30:26;3.80;;;2.17;;
13592;SDS011;6867;50.998;4.250;2023-02-28T11:32:58;1.77;;;1.67;;
13592;SDS011;6867;50.998;4.250;2023-02-28T11:35:26;2.47;;;1.77;;
13592;SDS011;6867;50.998;4.250;2023-02-28T11:37:56;2.93;;;1.50;;
13592;SDS011;6867;50.998;4.250;2023-02-28T11:40:30;3.53;;;1.93;;
13592;SDS011;6867;50.998;4.250;2023-02-28T11:43:06;1.80;;;1.60;;
13592;SDS011;6867;50.998;4.250;2023-02-28T11:45:44;2.93;;;1.80;;
13592;SDS011;6867;50.998;4.250;2023-02-28T11:48:19;3.23;;;2.10;;
13592;SDS011;6867;50.998;4.250;2023-02-28T11:50:52;3.20;;;1.90;;
13592;SDS011;6867;50.998;4.250;2023-02-28T11:53:33;2.40;;;2.17;;
13592;SDS011;6867;50.998;4.250;2023-02-28T11:56:13;2.33;;;1.93;;
13592;SDS011;6867;50.998;4.250;2023-02-28T11:58:48;3.13;;;2.20;;
13592;SDS011;6867;50.998;4.250;2023-02-28T12:01:24;2.60;;;2.10;;
13592;SDS011;6867;50.998;4.250;2023-02-28T12:04:09;2.53;;;1.90;;
13592;SDS011;6867;50.998;4.250;2023-02-28T12:06:45;2.37;;;2.13;;
13592;SDS011;6867;50.998;4.250;2023-02-28T12:09:20;2.23;;;2.03;;
13592;SDS011;6867;50.998;4.250;2023-02-28T12:12:02;2.83;;;2.30;;
13592;SDS011;6867;50.998;4.250;2023-02-28T12:14:47;3.23;;;2.23;;
13592;SDS011;6867;50.998;4.250;2023-02-28T12:17:27;2.30;;;2.10;;
13592;SDS011;6867;50.998;4.250;2023-02-28T12:20:05;2.97;;;1.90;;
13592;SDS011;6867;50.998;4.250;2023-02-28T12:22:43;3.03;;;2.30;;
13592;SDS011;6867;50.998;4.250;2023-02-28T12:25:24;2.53;;;2.10;;
13592;SDS011;6867;50.998;4.250;2023-02-28T12:28:10;4.33;;;2.17;;
13592;SDS011;6867;50.998;4.250;2023-02-28T12:30:41;2.77;;;2.57;;
13592;SDS011;6867;50.998;4.250;2023-02-28T12:33:16;2.57;;;2.00;;
13592;SDS011;6867;50.998;4.250;2023-02-28T12:35:48;7.80;;;2.60;;
13592;SDS011;6867;50.998;4.250;2023-02-28T12:38:21;3.47;;;2.10;;
13592;SDS011;6867;50.998;4.250;2023-02-28T12:40:52;3.37;;;1.90;;
13592;SDS011;6867;50.998;4.250;2023-02-28T12:43:25;2.30;;;2.07;;
13592;SDS011;6867;50.998;4.250;2023-02-28T12:45:58;2.93;;;2.23;;
13592;SDS011;6867;50.998;4.250;2023-02-28T12:48:31;2.77;;;2.20;;
13592;SDS011;6867;50.998;4.250;2023-02-28T12:51:04;2.77;;;2.30;;
13592;SDS011;6867;50.998;4.250;2023-02-28T12:53:35;2.90;;;2.27;;
13592;SDS011;6867;50.998;4.250;2023-02-28T12:56:13;2.70;;;2.17;;
13592;SDS011;6867;50.998;4.250;2023-02-28T12:58:48;3.60;;;2.30;;
13592;SDS011;6867;50.998;4.250;2023-02-28T13:01:27;4.97;;;2.13;;
13592;SDS011;6867;50.998;4.250;2023-02-28T13:04:21;2.83;;;1.90;;
13592;SDS011;6867;50.998;4.250;2023-02-28T13:10:00;2.27;;;2.07;;
13592;SDS011;6867;50.998;4.250;2023-02-28T13:12:31;3.47;;;2.00;;
13592;SDS011;6867;50.998;4.250;2023-02-28T13:15:04;3.57;;;2.53;;
13592;SDS011;6867;50.998;4.250;2023-02-28T13:17:38;2.70;;;2.00;;
13592;SDS011;6867;50.998;4.250;2023-02-28T13:20:13;2.63;;;2.40;;
13592;SDS011;6867;50.998;4.250;2023-02-28T13:22:42;3.30;;;2.13;;
13592;SDS011;6867;50.998;4.250;2023-02-28T13:31:20;3.07;;;2.50;;
13592;SDS011;6867;50.998;4.250;2023-02-28T13:36:38;2.77;;;2.33;;
13592;SDS011;6867;50.998;4.250;2023-02-28T13:39:44;3.23;;;2.67;;
13592;SDS011;6867;50.998;4.250;2023-02-28T13:42:30;4.07;;;2.80;;
13592;SDS011;6867;50.998;4.250;2023-02-28T13:45:20;3.43;;;2.70;;
13592;SDS011;6867;50.998;4.250;2023-02-28T13:47:53;3.00;;;2.70;;
13592;SDS011;6867;50.998;4.250;2023-02-28T13:50:32;5.07;;;2.90;;
13592;SDS011;6867;50.998;4.250;2023-02-28T13:56:10;3.90;;;2.63;;
13592;SDS011;6867;50.998;4.250;2023-02-28T13:58:52;3.47;;;3.07;;
13592;SDS011;6867;50.998;4.250;2023-02-28T14:01:26;3.43;;;2.60;;
13592;SDS011;6867;50.998;4.250;2023-02-28T14:04:14;4.07;;;2.37;;
13592;SDS011;6867;50.998;4.250;2023-02-28T14:07:16;3.20;;;2.30;;
13592;SDS011;6867;50.998;4.250;2023-02-28T14:09:46;3.23;;;2.43;;
13592;SDS011;6867;50.998;4.250;2023-02-28T14:15:39;7.90;;;2.67;;
13592;SDS011;6867;50.998;4.250;2023-02-28T14:18:17;4.33;;;2.67;;
13592;SDS011;6867;50.998;4.250;2023-02-28T14:20:49;4.70;;;2.30;;
13592;SDS011;6867;50.998;4.250;2023-02-28T14:23:24;3.37;;;2.50;;
13592;SDS011;6867;50.998;4.250;2023-02-28T14:26:06;3.63;;;2.23;;
13592;SDS011;6867;50.998;4.250;2023-02-28T14:28:47;4.83;;;2.53;;
13592;SDS011;6867;50.998;4.250;2023-02-28T14:31:23;5.30;;;2.50;;
13592;SDS011;6867;50.998;4.250;2023-02-28T14:34:05;3.87;;;2.67;;
13592;SDS011;6867;50.998;4.250;2023-02-28T14:36:48;5.17;;;2.90;;
13592;SDS011;6867;50.998;4.250;2023-02-28T14:39:19;3.23;;;2.47;;
13592;SDS011;6867;50.998;4.250;2023-02-28T14:41:48;4.53;;;2.80;;
13592;SDS011;6867;50.998;4.250;2023-02-28T14:44:16;4.57;;;2.80;;
13592;SDS011;6867;50.998;4.250;2023-02-28T14:46:45;3.43;;;2.53;;
13592;SDS011;6867;50.998;4.250;2023-02-28T14:49:17;3.77;;;2.63;;
13592;SDS011;6867;50.998;4.250;2023-02-28T14:51:48;3.67;;;2.60;;
13592;SDS011;6867;50.998;4.250;2023-02-28T14:54:16;5.07;;;2.60;;
13592;SDS011;6867;50.998;4.250;2023-02-28T14:56:49;3.00;;;2.70;;
13592;SDS011;6867;50.998;4.250;2023-02-28T14:59:23;4.03;;;2.50;;
13592;SDS011;6867;50.998;4.250;2023-02-28T15:01:52;4.83;;;2.90;;
13592;SDS011;6867;50.998;4.250;2023-02-28T15:04:33;3.53;;;2.60;;
13592;SDS011;6867;50.998;4.250;2023-02-28T15:07:11;5.27;;;2.80;;
13592;SDS011;6867;50.998;4.250;2023-02-28T15:09:40;7.17;;;2.50;;
13592;SDS011;6867;50.998;4.250;2023-02-28T15:12:07;5.03;;;3.17;;
13592;SDS011;6867;50.998;4.250;2023-02-28T15:14:41;5.73;;;3.90;;
13592;SDS011;6867;50.998;4.250;2023-02-28T15:17:16;3.37;;;3.07;;
13592;SDS011;6867;50.998;4.250;2023-02-28T15:19:50;10.70;;;7.43;;
13592;SDS011;6867;50.998;4.250;2023-02-28T15:22:20;7.57;;;6.17;;
13592;SDS011;6867;50.998;4.250;2023-02-28T15:24:54;6.90;;;4.90;;
13592;SDS011;6867;50.998;4.250;2023-02-28T15:27:22;5.97;;;3.20;;
13592;SDS011;6867;50.998;4.250;2023-02-28T15:29:53;3.13;;;2.80;;
13592;SDS011;6867;50.998;4.250;2023-02-28T15:32:26;3.40;;;3.10;;
13592;SDS011;6867;50.998;4.250;2023-02-28T15:34:55;5.60;;;3.83;;
13592;SDS011;6867;50.998;4.250;2023-02-28T15:37:28;12.30;;;6.27;;
13592;SDS011;6867;50.998;4.250;2023-02-28T15:40:10;12.57;;;7.20;;
13592;SDS011;6867;50.998;4.250;2023-02-28T15:42:40;7.03;;;5.23;;